LLIB

Ben Ya'akov Airport

Rosh Pina, Israel
TAF LLIB 230506Z 2306/2406 16006KT CAVOK BECMG 2309/2311 32012KT BECMG 2319/2320 VRB03KT TX24/2312Z TN12/2403Z
Issued Valid From Valid To
Apr-23 @ 05:06 UTC
(4 hours ago)
Apr-23 @ 06:00 UTC
(4 hours ago)
Apr-24 @ 06:00 UTC
(in 20 hours)
Expired Click to View Apr-23 @ 06:00 to Apr-23 @ 09:00
TAF LLIB 230506Z 2306/2406 16006KT CAVOK
Wind Visibility Clouds Conditions
160° at 6 knots 10,000+ meters
  • No significant clouds
Becoming Apr-23 @ 09:00 to Apr-23 @ 19:00
BECMG 2309/2311 32012KT
Wind Visibility Clouds Conditions
320° at 12 knots 10,000+ meters
  • No significant clouds
Becoming Apr-23 @ 19:00 to Apr-24 @ 06:00
BECMG 2319/2320 VRB03KT TX24/2312Z TN12/2403Z
Wind Visibility Clouds Conditions
Variable at 3 knots 10,000+ meters
  • No significant clouds
TAF LLIB 230506Z 2306/2406 16006KT CAVOK BECMG 2309/2311 32012KT BECMG 2319/2320 VRB03KT TX24/2312Z TN12/2403Z
Issued Apr-23 @ 05:06 UTC
(4 hours ago)
Valid From Apr-23 @ 06:00 UTC
(4 hours ago)
Valid To Apr-24 @ 06:00 UTC
(in 20 hours)
Apr-23 @ 06:00 - Apr-23 @ 09:00
Wind Visibility
160° at 6 knots 10,000+ meters
Clouds
  • No significant clouds
Conditions
Becoming Apr-23 @ 09:00 - Apr-23 @ 19:00
Wind Visibility
320° at 12 knots 10,000+ meters
Clouds
  • No significant clouds
Conditions
Becoming Apr-23 @ 19:00 - Apr-24 @ 06:00
Wind Visibility
Variable at 3 knots 10,000+ meters
Clouds
  • No significant clouds
Conditions